Time,TemperatureF,DewpointF,PressureIn,WindDirection,WindDirectionDegrees,WindSpeedMPH,WindSpeedGustMPH,Humidity,HourlyPrecipIn,Conditions,Clouds,dailyrainin,SolarRadiationWatts/m^2,SoftwareType,DateUTC
2013-09-28 00:06:00,65.3,33.9,29.83,NE,49,0.0,0.0,31,0.00,,,0.00,0,WeatherTracker,2013-09-28 07:06:00,
2013-09-28 00:16:00,64.4,33.1,29.83,NE,49,0.0,0.0,31,0.00,,,0.00,0,WeatherTracker,2013-09-28 07:16:00,
2013-09-28 00:26:00,63.5,33.1,29.83,NE,49,0.0,0.0,32,0.00,,,0.00,0,WeatherTracker,2013-09-28 07:26:00,
2013-09-28 00:36:00,62.7,32.4,29.83,NE,49,0.0,0.0,32,0.00,,,0.00,0,WeatherTracker,2013-09-28 07:36:00,
2013-09-28 00:46:00,62.2,32.7,29.83,NE,49,0.0,0.0,33,0.00,,,0.00,0,WeatherTracker,2013-09-28 07:46:00,
2013-09-28 00:56:00,61.7,33.0,29.83,NE,49,0.0,0.0,34,0.00,,,0.00,0,WeatherTracker,2013-09-28 07:56:00,
2013-09-28 01:06:00,61.1,32.5,29.83,NE,49,0.0,0.0,34,0.00,,,0.00,0,WeatherTracker,2013-09-28 08:06:00,
2013-09-28 01:16:00,60.8,32.3,29.83,NE,49,0.0,0.0,34,0.00,,,0.00,0,WeatherTracker,2013-09-28 08:16:00,
2013-09-28 01:21:00,60.6,32.8,29.83,NE,49,0.0,0.0,35,0.00,,,0.00,0,WeatherTracker,2013-09-28 08:21:00,
2013-09-28 01:31:00,60.4,32.6,29.84,NE,49,0.0,0.0,35,0.00,,,0.00,0,WeatherTracker,2013-09-28 08:31:00,
2013-09-28 01:36:00,60.3,31.8,29.84,NE,49,0.0,0.0,34,0.00,,,0.00,0,WeatherTracker,2013-09-28 08:36:00,
2013-09-28 01:41:00,60.3,31.8,29.84,NE,49,0.0,0.0,34,0.00,,,0.00,0,WeatherTracker,2013-09-28 08:41:00,
2013-09-28 01:51:00,60.2,32.4,29.84,NE,49,0.0,0.0,35,0.00,,,0.00,0,WeatherTracker,2013-09-28 08:51:00,
2013-09-28 01:56:00,60.0,31.6,29.84,NE,49,0.0,0.0,34,0.00,,,0.00,0,WeatherTracker,2013-09-28 08:56:00,
2013-09-28 02:01:00,60.0,31.6,29.84,NE,49,0.0,0.0,34,0.00,,,0.00,0,WeatherTracker,2013-09-28 09:01:00,
2013-09-28 02:11:00,59.7,29.8,29.84,NE,49,0.0,0.0,32,0.00,,,0.00,0,WeatherTracker,2013-09-28 09:11:00,
2013-09-28 02:16:00,59.7,31.3,29.84,NE,49,0.0,0.0,34,0.00,,,0.00,0,WeatherTracker,2013-09-28 09:16:00,
2013-09-28 02:21:00,59.6,30.5,29.84,NE,49,0.0,0.0,33,0.00,,,0.00,0,WeatherTracker,2013-09-28 09:21:00,
2013-09-28 02:26:00,59.5,30.4,29.84,NE,49,0.0,0.0,33,0.00,,,0.00,0,WeatherTracker,2013-09-28 09:26:00,
2013-09-28 02:36:00,59.4,31.0,29.84,NE,49,0.0,0.0,34,0.00,,,0.00,0,WeatherTracker,2013-09-28 09:36:00,
2013-09-28 02:46:00,59.3,31.7,29.84,NE,49,0.0,0.0,35,0.00,,,0.00,0,WeatherTracker,2013-09-28 09:46:00,
2013-09-28 02:56:00,59.0,31.4,29.83,NE,49,0.0,0.0,35,0.00,,,0.00,0,WeatherTracker,2013-09-28 09:56:00,
2013-09-28 03:06:00,58.8,31.9,29.84,NE,49,0.0,0.0,36,0.00,,,0.00,0,WeatherTracker,2013-09-28 10:06:00,
2013-09-28 03:11:00,58.7,32.5,29.84,NE,49,0.0,0.0,37,0.00,,,0.00,0,WeatherTracker,2013-09-28 10:11:00,
2013-09-28 03:16:00,58.6,32.4,29.84,NE,49,0.0,0.0,37,0.00,,,0.00,0,WeatherTracker,2013-09-28 10:16:00,
2013-09-28 03:21:00,58.3,32.1,29.84,NE,49,0.0,0.0,37,0.00,,,0.00,0,WeatherTracker,2013-09-28 10:21:00,
2013-09-28 03:26:00,58.0,31.9,29.84,NE,49,0.0,0.0,37,0.00,,,0.00,0,WeatherTracker,2013-09-28 10:26:00,
2013-09-28 03:31:00,58.0,31.9,29.84,NE,49,0.0,0.0,37,0.00,,,0.00,0,WeatherTracker,2013-09-28 10:31:00,
2013-09-28 03:36:00,57.8,32.4,29.84,NE,49,0.0,0.0,38,0.00,,,0.00,0,WeatherTracker,2013-09-28 10:36:00,
2013-09-28 03:46:00,57.6,32.8,29.84,NE,49,0.0,0.0,39,0.00,,,0.00,0,WeatherTracker,2013-09-28 10:46:00,
2013-09-28 03:51:00,57.4,32.6,29.85,NE,49,0.0,0.0,39,0.00,,,0.00,0,WeatherTracker,2013-09-28 10:51:00,
2013-09-28 04:01:00,57.1,33.0,29.85,NE,49,0.0,0.0,40,0.00,,,0.00,0,WeatherTracker,2013-09-28 11:01:00,
2013-09-28 04:06:00,56.8,33.4,29.85,NE,49,0.0,0.0,41,0.00,,,0.00,0,WeatherTracker,2013-09-28 11:06:00,
2013-09-28 04:16:00,56.4,33.6,29.86,NE,49,0.0,0.0,42,0.00,,,0.00,0,WeatherTracker,2013-09-28 11:16:00,
2013-09-28 04:21:00,56.1,33.3,29.86,NE,49,0.0,0.0,42,0.00,,,0.00,0,WeatherTracker,2013-09-28 11:21:00,
2013-09-28 04:31:00,55.7,32.4,29.87,NE,49,0.0,0.0,41,0.00,,,0.00,0,WeatherTracker,2013-09-28 11:31:00,
2013-09-28 04:41:00,55.6,32.3,29.87,NE,49,0.0,0.0,41,0.00,,,0.00,0,WeatherTracker,2013-09-28 11:41:00,
2013-09-28 04:51:00,55.6,32.3,29.87,NE,49,0.0,0.0,41,0.00,,,0.00,0,WeatherTracker,2013-09-28 11:51:00,
2013-09-28 05:01:00,55.6,30.4,29.88,NE,49,0.0,0.0,38,0.00,,,0.00,0,WeatherTracker,2013-09-28 12:01:00,
2013-09-28 05:06:00,55.6,29.7,29.88,NE,49,0.0,0.0,37,0.00,,,0.00,0,WeatherTracker,2013-09-28 12:06:00,
2013-09-28 05:11:00,55.7,29.8,29.88,NE,49,0.0,0.0,37,0.00,,,0.00,0,WeatherTracker,2013-09-28 12:11:00,
2013-09-28 05:16:00,55.9,30.0,29.88,NE,49,0.0,0.0,37,0.00,,,0.00,0,WeatherTracker,2013-09-28 12:16:00,
2013-09-28 05:26:00,56.1,29.5,29.89,NE,49,0.0,0.0,36,0.00,,,0.00,0,WeatherTracker,2013-09-28 12:26:00,
2013-09-28 05:36:00,56.5,30.5,29.90,NE,49,0.0,0.0,37,0.00,,,0.00,0,WeatherTracker,2013-09-28 12:36:00,
2013-09-28 05:46:00,56.7,32.0,29.90,NE,49,0.0,0.0,39,0.00,,,0.00,0,WeatherTracker,2013-09-28 12:46:00,
2013-09-28 05:56:00,56.5,31.8,29.90,NE,49,0.0,0.0,39,0.00,,,0.00,0,WeatherTracker,2013-09-28 12:56:00,
2013-09-28 06:06:00,56.2,31.6,29.90,NE,49,0.0,0.0,39,0.00,,,0.00,0,WeatherTracker,2013-09-28 13:06:00,
2013-09-28 06:11:00,56.0,32.0,29.90,NE,49,0.0,0.0,40,0.00,,,0.00,0,WeatherTracker,2013-09-28 13:11:00,
2013-09-28 06:16:00,55.9,32.5,29.90,NE,49,0.0,0.0,41,0.00,,,0.00,0,WeatherTracker,2013-09-28 13:16:00,
2013-09-28 06:26:00,55.5,32.8,29.91,NE,49,0.0,0.0,42,0.00,,,0.00,7,WeatherTracker,2013-09-28 13:26:00,
2013-09-28 06:31:00,55.4,32.7,29.91,NE,49,0.0,0.0,42,0.00,,,0.00,11,WeatherTracker,2013-09-28 13:31:00,
2013-09-28 06:41:00,55.0,32.9,29.91,NE,49,0.0,0.0,43,0.00,,,0.00,16,WeatherTracker,2013-09-28 13:41:00,
2013-09-28 06:51:00,55.0,32.9,29.91,NE,49,0.0,0.0,43,0.00,,,0.00,23,WeatherTracker,2013-09-28 13:51:00,
2013-09-28 07:01:00,55.1,34.1,29.92,South,185,0.0,0.0,45,0.00,,,0.00,72,WeatherTracker,2013-09-28 14:01:00,
2013-09-28 07:16:00,56.0,33.2,29.92,South,185,0.0,0.0,42,0.00,,,0.00,33,WeatherTracker,2013-09-28 14:16:00,
2013-09-28 07:26:00,57.2,33.7,29.93,South,185,0.0,0.0,41,0.00,,,0.00,188,WeatherTracker,2013-09-28 14:26:00,
2013-09-28 07:36:00,59.0,34.7,29.93,South,185,0.0,0.0,40,0.00,,,0.00,279,WeatherTracker,2013-09-28 14:36:00,
2013-09-28 07:46:00,60.8,32.3,29.93,South,185,0.0,0.0,34,0.00,,,0.00,295,WeatherTracker,2013-09-28 14:46:00,
2013-09-28 07:56:00,62.7,32.4,29.93,South,185,0.0,0.0,32,0.00,,,0.00,229,WeatherTracker,2013-09-28 14:56:00,
2013-09-28 08:01:00,63.5,32.3,29.94,South,185,0.0,0.0,31,0.00,,,0.00,315,WeatherTracker,2013-09-28 15:01:00,
2013-09-28 08:11:00,65.2,33.0,29.94,South,185,0.0,0.0,30,0.00,,,0.00,125,WeatherTracker,2013-09-28 15:11:00,
2013-09-28 08:21:00,66.8,32.6,29.94,SSW,199,0.0,0.0,28,0.00,,,0.00,46,WeatherTracker,2013-09-28 15:21:00,
2013-09-28 08:26:00,67.6,33.3,29.94,SSW,199,0.0,0.0,28,0.00,,,0.00,308,WeatherTracker,2013-09-28 15:26:00,
2013-09-28 08:31:00,68.3,33.0,29.94,SSW,199,0.0,0.0,27,0.00,,,0.00,434,WeatherTracker,2013-09-28 15:31:00,
2013-09-28 08:41:00,69.7,32.3,29.95,SSW,199,0.0,0.0,25,0.00,,,0.00,513,WeatherTracker,2013-09-28 15:41:00,
2013-09-28 08:51:00,71.2,30.4,29.95,SSW,199,0.0,0.0,22,0.00,,,0.00,385,WeatherTracker,2013-09-28 15:51:00,
2013-09-28 09:01:00,72.5,32.6,29.95,SSW,199,0.0,0.0,23,0.00,,,0.00,563,WeatherTracker,2013-09-28 16:01:00,
2013-09-28 09:06:00,73.1,33.1,29.95,SSW,199,0.0,0.0,23,0.00,,,0.00,441,WeatherTracker,2013-09-28 16:06:00,
2013-09-28 09:11:00,73.7,32.5,29.95,SSE,151,0.0,0.0,22,0.00,,,0.00,520,WeatherTracker,2013-09-28 16:11:00,
2013-09-28 09:21:00,74.7,33.3,29.95,SSE,160,0.0,0.0,22,0.00,,,0.00,538,WeatherTracker,2013-09-28 16:21:00,
2013-09-28 09:31:00,75.4,31.5,29.96,SW,234,0.0,0.0,20,0.00,,,0.00,466,WeatherTracker,2013-09-28 16:31:00,
2013-09-28 09:41:00,76.3,32.3,29.96,SW,229,0.0,0.0,20,0.00,,,0.00,496,WeatherTracker,2013-09-28 16:41:00,
2013-09-28 09:46:00,76.7,31.3,29.96,SW,229,1.0,0.0,19,0.00,,,0.00,578,WeatherTracker,2013-09-28 16:46:00,
2013-09-28 09:56:00,77.6,33.3,29.95,SW,229,0.0,0.0,20,0.00,,,0.00,529,WeatherTracker,2013-09-28 16:56:00,
2013-09-28 10:06:00,78.5,32.8,29.95,SW,229,0.0,0.0,19,0.00,,,0.00,571,WeatherTracker,2013-09-28 17:06:00,
2013-09-28 10:16:00,79.4,33.5,29.95,SSW,192,0.0,0.0,19,0.00,,,0.00,656,WeatherTracker,2013-09-28 17:16:00,
2013-09-28 10:21:00,79.9,33.9,29.94,SSW,192,0.0,0.0,19,0.00,,,0.00,647,WeatherTracker,2013-09-28 17:21:00,
2013-09-28 10:31:00,81.1,34.9,29.95,SSW,192,0.0,0.0,19,0.00,,,0.00,563,WeatherTracker,2013-09-28 17:31:00,
2013-09-28 10:36:00,81.8,36.8,29.94,SSW,192,0.0,0.0,20,0.00,,,0.00,501,WeatherTracker,2013-09-28 17:36:00,
2013-09-28 10:41:00,82.4,38.5,29.94,SSW,192,0.0,0.0,21,0.00,,,0.00,800,WeatherTracker,2013-09-28 17:41:00,
2013-09-28 10:51:00,83.5,39.4,29.94,SSW,192,0.0,0.0,21,0.00,,,0.00,661,WeatherTracker,2013-09-28 17:51:00,
2013-09-28 11:01:00,84.2,42.4,29.94,SSE,163,0.0,0.0,23,0.00,,,0.00,775,WeatherTracker,2013-09-28 18:01:00,
2013-09-28 11:11:00,84.7,43.9,29.93,SE,144,0.0,0.0,24,0.00,,,0.00,680,WeatherTracker,2013-09-28 18:11:00,
2013-09-28 11:21:00,85.3,44.4,29.93,East,87,0.0,0.0,24,0.00,,,0.00,854,WeatherTracker,2013-09-28 18:21:00,
2013-09-28 11:31:00,85.4,44.5,29.92,West,279,0.0,0.0,24,0.00,,,0.00,846,WeatherTracker,2013-09-28 18:31:00,
2013-09-28 11:41:00,85.2,44.3,29.92,SSW,192,0.0,0.0,24,0.00,,,0.00,800,WeatherTracker,2013-09-28 18:41:00,
2013-09-28 11:51:00,85.4,42.2,29.92,SW,219,0.0,0.0,22,0.00,,,0.00,865,WeatherTracker,2013-09-28 18:51:00,
2013-09-28 12:01:00,85.2,42.0,29.93,South,188,0.0,0.0,22,0.00,,,0.00,188,WeatherTracker,2013-09-28 19:01:00,
2013-09-28 12:06:00,85.0,41.9,29.91,SSW,209,0.0,0.0,22,0.00,,,0.00,62,WeatherTracker,2013-09-28 19:06:00,
2013-09-28 12:11:00,85.1,42.0,29.91,West,268,0.0,0.0,22,0.00,,,0.00,870,WeatherTracker,2013-09-28 19:11:00,
2013-09-28 12:21:00,85.0,41.9,29.91,NE,55,0.0,0.0,22,0.00,,,0.00,851,WeatherTracker,2013-09-28 19:21:00,
2013-09-28 12:26:00,85.2,42.0,29.91,NNW,340,0.0,0.0,22,0.00,,,0.00,810,WeatherTracker,2013-09-28 19:26:00,
2013-09-28 12:31:00,85.6,42.4,29.90,West,265,0.0,0.0,22,0.00,,,0.00,682,WeatherTracker,2013-09-28 19:31:00,
2013-09-28 12:41:00,86.0,41.5,29.90,NNE,32,0.0,0.0,21,0.00,,,0.00,786,WeatherTracker,2013-09-28 19:41:00,
2013-09-28 12:46:00,86.3,41.7,29.90,North,355,0.0,0.0,21,0.00,,,0.00,729,WeatherTracker,2013-09-28 19:46:00,
2013-09-28 12:51:00,86.4,41.8,29.89,SSE,161,1.0,0.0,21,0.00,,,0.00,708,WeatherTracker,2013-09-28 19:51:00,
2013-09-28 13:01:00,86.4,40.6,29.89,SSE,147,0.0,0.0,20,0.00,,,0.00,789,WeatherTracker,2013-09-28 20:01:00,
2013-09-28 13:11:00,86.4,40.6,29.88,West,275,0.0,0.0,20,0.00,,,0.00,645,WeatherTracker,2013-09-28 20:11:00,
2013-09-28 13:21:00,86.7,40.8,29.87,ENE,64,1.0,0.0,20,0.00,,,0.00,810,WeatherTracker,2013-09-28 20:21:00,
2013-09-28 13:26:00,87.3,41.3,29.87,SSE,153,4.0,0.0,20,0.00,,,0.00,805,WeatherTracker,2013-09-28 20:26:00,
2013-09-28 13:31:00,87.4,41.4,29.87,South,188,1.0,0.0,20,0.00,,,0.00,534,WeatherTracker,2013-09-28 20:31:00,
2013-09-28 13:41:00,87.3,41.3,29.86,SSE,168,4.0,0.0,20,0.00,,,0.00,742,WeatherTracker,2013-09-28 20:41:00,
2013-09-28 13:51:00,87.7,40.3,29.86,East,101,0.0,0.0,19,0.00,,,0.00,650,WeatherTracker,2013-09-28 20:51:00,
2013-09-28 14:01:00,87.7,40.3,29.86,South,186,1.0,0.0,19,0.00,,,0.00,671,WeatherTracker,2013-09-28 21:01:00,
2013-09-28 14:11:00,88.2,40.7,29.85,SSE,168,0.0,0.0,19,0.00,,,0.00,628,WeatherTracker,2013-09-28 21:11:00,
2013-09-28 14:21:00,88.5,40.9,29.85,WNW,288,1.0,0.0,19,0.00,,,0.00,462,WeatherTracker,2013-09-28 21:21:00,
2013-09-28 14:31:00,88.8,41.2,29.85,SW,217,2.0,0.0,19,0.00,,,0.00,570,WeatherTracker,2013-09-28 21:31:00,
2013-09-28 14:41:00,89.1,41.4,29.85,NNW,329,1.0,0.0,19,0.00,,,0.00,564,WeatherTracker,2013-09-28 21:41:00,
2013-09-28 14:51:00,88.9,41.3,29.84,WNW,291,0.0,0.0,19,0.00,,,0.00,439,WeatherTracker,2013-09-28 21:51:00,
2013-09-28 15:01:00,89.2,41.5,29.85,SW,225,0.0,0.0,19,0.00,,,0.00,541,WeatherTracker,2013-09-28 22:01:00,
2013-09-28 15:11:00,89.4,40.3,29.84,SSE,150,0.0,0.0,18,0.00,,,0.00,555,WeatherTracker,2013-09-28 22:11:00,
2013-09-28 15:21:00,89.3,40.2,29.84,South,180,2.0,0.0,18,0.00,,,0.00,439,WeatherTracker,2013-09-28 22:21:00,
2013-09-28 15:31:00,89.1,40.0,29.84,South,176,1.0,0.0,18,0.00,,,0.00,446,WeatherTracker,2013-09-28 22:31:00,
2013-09-28 15:41:00,88.7,41.1,29.84,SSW,204,0.0,0.0,19,0.00,,,0.00,413,WeatherTracker,2013-09-28 22:41:00,
2013-09-28 15:51:00,88.2,40.7,29.84,WSW,252,0.0,0.0,19,0.00,,,0.00,357,WeatherTracker,2013-09-28 22:51:00,
2013-09-28 16:01:00,87.9,40.5,29.84,WNW,284,0.0,0.0,19,0.00,,,0.00,267,WeatherTracker,2013-09-28 23:01:00,
2013-09-28 16:11:00,87.6,41.5,29.84,SW,236,0.0,0.0,20,0.00,,,0.00,271,WeatherTracker,2013-09-28 23:11:00,
2013-09-28 16:21:00,87.2,41.2,29.84,SSW,209,1.0,0.0,20,0.00,,,0.00,306,WeatherTracker,2013-09-28 23:21:00,
2013-09-28 16:31:00,86.9,41.0,29.83,SSW,197,2.0,0.0,20,0.00,,,0.00,88,WeatherTracker,2013-09-28 23:31:00,
2013-09-28 16:41:00,86.6,40.7,29.84,SSW,211,0.0,0.0,20,0.00,,,0.00,47,WeatherTracker,2013-09-28 23:41:00,
2013-09-28 16:51:00,86.3,40.5,29.84,SW,222,3.0,0.0,20,0.00,,,0.00,30,WeatherTracker,2013-09-28 23:51:00,
2013-09-28 17:01:00,86.1,40.3,29.84,WNW,282,1.0,0.0,20,0.00,,,0.00,26,WeatherTracker,2013-09-29 00:01:00,
2013-09-28 17:06:00,85.9,40.1,29.84,West,281,0.0,0.0,20,0.00,,,0.00,25,WeatherTracker,2013-09-29 00:06:00,
2013-09-28 17:11:00,85.7,40.0,29.84,WNW,283,0.0,0.0,20,0.00,,,0.00,23,WeatherTracker,2013-09-29 00:11:00,
2013-09-28 17:21:00,85.5,41.1,29.84,WNW,283,1.0,0.0,21,0.00,,,0.00,19,WeatherTracker,2013-09-29 00:21:00,
2013-09-28 17:26:00,85.3,40.9,29.84,WNW,286,0.0,0.0,21,0.00,,,0.00,18,WeatherTracker,2013-09-29 00:26:00,
2013-09-28 17:36:00,84.9,40.6,29.85,WNW,286,0.0,0.0,21,0.00,,,0.00,16,WeatherTracker,2013-09-29 00:36:00,
2013-09-28 17:41:00,84.7,40.4,29.85,WNW,286,2.0,0.0,21,0.00,,,0.00,14,WeatherTracker,2013-09-29 00:41:00,
2013-09-28 17:46:00,84.5,41.5,29.85,WNW,286,0.0,0.0,22,0.00,,,0.00,12,WeatherTracker,2013-09-29 00:46:00,
2013-09-28 17:56:00,84.1,41.1,29.85,WNW,286,0.0,0.0,22,0.00,,,0.00,9,WeatherTracker,2013-09-29 00:56:00,
2013-09-28 18:06:00,83.6,41.9,29.85,WNW,286,0.0,0.0,23,0.00,,,0.00,5,WeatherTracker,2013-09-29 01:06:00,
2013-09-28 18:16:00,83.1,41.4,29.85,WNW,286,0.0,0.0,23,0.00,,,0.00,0,WeatherTracker,2013-09-29 01:16:00,
2013-09-28 18:26:00,82.5,40.9,29.85,WNW,286,0.0,0.0,23,0.00,,,0.00,0,WeatherTracker,2013-09-29 01:26:00,
2013-09-28 18:36:00,81.6,41.3,29.85,WNW,286,0.0,0.0,24,0.00,,,0.00,0,WeatherTracker,2013-09-29 01:36:00,
2013-09-28 18:46:00,80.9,41.8,29.85,WNW,286,0.0,0.0,25,0.00,,,0.00,0,WeatherTracker,2013-09-29 01:46:00,
2013-09-28 18:51:00,80.5,41.4,29.85,WNW,286,0.0,0.0,25,0.00,,,0.00,0,WeatherTracker,2013-09-29 01:51:00,
2013-09-28 18:56:00,80.1,41.1,29.86,WNW,286,0.0,0.0,25,0.00,,,0.00,0,WeatherTracker,2013-09-29 01:56:00,
2013-09-28 19:06:00,79.1,41.3,29.86,WNW,286,0.0,0.0,26,0.00,,,0.00,0,WeatherTracker,2013-09-29 02:06:00,
2013-09-28 19:16:00,78.5,41.7,29.86,WNW,286,0.0,0.0,27,0.00,,,0.00,0,WeatherTracker,2013-09-29 02:16:00,
2013-09-28 19:21:00,78.2,41.5,29.86,WNW,292,0.0,0.0,27,0.00,,,0.00,0,WeatherTracker,2013-09-29 02:21:00,
2013-09-28 19:31:00,77.9,42.1,29.86,WNW,292,0.0,0.0,28,0.00,,,0.00,0,WeatherTracker,2013-09-29 02:31:00,
2013-09-28 19:41:00,77.6,41.9,29.87,WNW,292,0.0,0.0,28,0.00,,,0.00,0,WeatherTracker,2013-09-29 02:41:00,
2013-09-28 19:51:00,77.3,41.6,29.87,WNW,292,0.0,0.0,28,0.00,,,0.00,0,WeatherTracker,2013-09-29 02:51:00,
2013-09-28 20:01:00,76.9,41.3,29.88,WNW,292,0.0,0.0,28,0.00,,,0.00,0,WeatherTracker,2013-09-29 03:01:00,
2013-09-28 20:11:00,76.3,41.7,29.88,WNW,292,0.0,0.0,29,0.00,,,0.00,0,WeatherTracker,2013-09-29 03:11:00,
2013-09-28 20:21:00,75.8,41.3,29.88,WNW,292,0.0,0.0,29,0.00,,,0.00,0,WeatherTracker,2013-09-29 03:21:00,
2013-09-28 20:31:00,75.8,41.3,29.88,WNW,292,0.0,0.0,29,0.00,,,0.00,0,WeatherTracker,2013-09-29 03:31:00,
2013-09-28 20:36:00,75.7,41.2,29.88,WNW,292,0.0,0.0,29,0.00,,,0.00,0,WeatherTracker,2013-09-29 03:36:00,
2013-09-28 20:46:00,75.5,41.9,29.89,WNW,292,0.0,0.0,30,0.00,,,0.00,0,WeatherTracker,2013-09-29 03:46:00,
2013-09-28 20:51:00,75.4,41.8,29.89,WNW,292,0.0,0.0,30,0.00,,,0.00,0,WeatherTracker,2013-09-29 03:51:00,
2013-09-28 21:01:00,75.0,41.4,29.89,WNW,292,0.0,0.0,30,0.00,,,0.00,0,WeatherTracker,2013-09-29 04:01:00,
2013-09-28 21:06:00,74.8,41.3,29.90,North,5,0.0,0.0,30,0.00,,,0.00,0,WeatherTracker,2013-09-29 04:06:00,
2013-09-28 21:11:00,74.6,41.1,29.89,North,9,0.0,0.0,30,0.00,,,0.00,0,WeatherTracker,2013-09-29 04:11:00,
2013-09-28 21:16:00,74.4,40.1,29.89,East,97,0.0,0.0,29,0.00,,,0.00,0,WeatherTracker,2013-09-29 04:16:00,
2013-09-28 21:21:00,74.2,39.9,29.89,East,97,0.0,0.0,29,0.00,,,0.00,0,WeatherTracker,2013-09-29 04:21:00,
2013-09-28 21:26:00,74.1,40.7,29.90,East,97,0.0,0.0,30,0.00,,,0.00,0,WeatherTracker,2013-09-29 04:26:00,
2013-09-28 21:31:00,74.0,40.6,29.89,East,97,0.0,0.0,30,0.00,,,0.00,0,WeatherTracker,2013-09-29 04:31:00,
2013-09-28 21:36:00,74.0,41.4,29.89,East,97,0.0,0.0,31,0.00,,,0.00,0,WeatherTracker,2013-09-29 04:36:00,
2013-09-28 21:41:00,73.9,40.5,29.89,East,97,0.0,0.0,30,0.00,,,0.00,0,WeatherTracker,2013-09-29 04:41:00,
2013-09-28 21:46:00,73.7,40.3,29.90,East,97,0.0,0.0,30,0.00,,,0.00,0,WeatherTracker,2013-09-29 04:46:00,
2013-09-28 21:51:00,73.5,40.2,29.91,East,97,0.0,0.0,30,0.00,,,0.00,0,WeatherTracker,2013-09-29 04:51:00,
2013-09-28 22:01:00,73.1,40.7,29.90,East,97,0.0,0.0,31,0.00,,,0.00,0,WeatherTracker,2013-09-29 05:01:00,
2013-09-28 22:11:00,72.8,40.4,29.90,East,97,0.0,0.0,31,0.00,,,0.00,0,WeatherTracker,2013-09-29 05:11:00,
2013-09-28 22:21:00,72.3,40.8,29.90,East,97,0.0,0.0,32,0.00,,,0.00,0,WeatherTracker,2013-09-29 05:21:00,
2013-09-28 22:31:00,71.5,40.9,29.90,East,97,0.0,0.0,33,0.00,,,0.00,0,WeatherTracker,2013-09-29 05:31:00,
2013-09-28 22:41:00,71.0,41.2,29.91,East,97,0.0,0.0,34,0.00,,,0.00,0,WeatherTracker,2013-09-29 05:41:00,
2013-09-28 22:46:00,70.7,40.9,29.90,East,97,0.0,0.0,34,0.00,,,0.00,0,WeatherTracker,2013-09-29 05:46:00,
2013-09-28 22:51:00,70.4,41.4,29.91,East,97,0.0,0.0,35,0.00,,,0.00,0,WeatherTracker,2013-09-29 05:51:00,
2013-09-28 23:01:00,69.8,40.9,29.92,East,97,0.0,0.0,35,0.00,,,0.00,0,WeatherTracker,2013-09-29 06:01:00,
2013-09-28 23:11:00,69.2,39.6,29.91,East,97,0.0,0.0,34,0.00,,,0.00,0,WeatherTracker,2013-09-29 06:11:00,
2013-09-28 23:21:00,68.7,38.4,29.92,East,97,0.0,0.0,33,0.00,,,0.00,0,WeatherTracker,2013-09-29 06:21:00,
2013-09-28 23:31:00,68.5,38.3,29.92,East,97,0.0,0.0,33,0.00,,,0.00,0,WeatherTracker,2013-09-29 06:31:00,
2013-09-28 23:41:00,68.5,38.3,29.92,East,97,0.0,0.0,33,0.00,,,0.00,0,WeatherTracker,2013-09-29 06:41:00,
2013-09-28 23:46:00,68.4,37.4,29.92,East,97,0.0,0.0,32,0.00,,,0.00,0,WeatherTracker,2013-09-29 06:46:00,
2013-09-28 23:56:00,68.3,37.3,29.92,East,97,0.0,0.0,32,0.00,,,0.00,0,WeatherTracker,2013-09-29 06:56:00,